sensor_id;sensor_type;location;lat;lon;timestamp;temperature;humidity
9564;DHT22;4820;50.870;4.702;2023-06-26T00:01:20;24.20;99.90
9564;DHT22;4820;50.870;4.702;2023-06-26T00:03:46;24.20;99.90
9564;DHT22;4820;50.870;4.702;2023-06-26T00:06:12;24.10;99.90
9564;DHT22;4820;50.870;4.702;2023-06-26T00:08:38;24.10;99.90
9564;DHT22;4820;50.870;4.702;2023-06-26T00:11:04;24.00;99.90
9564;DHT22;4820;50.870;4.702;2023-06-26T00:13:48;23.90;99.90
9564;DHT22;4820;50.870;4.702;2023-06-26T00:16:14;23.90;99.90
9564;DHT22;4820;50.870;4.702;2023-06-26T00:18:40;23.80;99.90
9564;DHT22;4820;50.870;4.702;2023-06-26T00:21:07;23.80;99.90
9564;DHT22;4820;50.870;4.702;2023-06-26T00:23:32;23.70;99.90
9564;DHT22;4820;50.870;4.702;2023-06-26T00:26:04;23.70;99.90
9564;DHT22;4820;50.870;4.702;2023-06-26T00:28:30;23.70;99.90
9564;DHT22;4820;50.870;4.702;2023-06-26T00:30:56;23.60;99.90
9564;DHT22;4820;50.870;4.702;2023-06-26T00:33:22;23.50;99.90
9564;DHT22;4820;50.870;4.702;2023-06-26T00:35:47;23.50;99.90
9564;DHT22;4820;50.870;4.702;2023-06-26T00:38:13;23.40;99.90
9564;DHT22;4820;50.870;4.702;2023-06-26T00:40:39;23.30;99.90
9564;DHT22;4820;50.870;4.702;2023-06-26T00:43:04;23.30;99.90
9564;DHT22;4820;50.870;4.702;2023-06-26T00:45:30;23.20;99.90
9564;DHT22;4820;50.870;4.702;2023-06-26T00:47:56;23.20;99.90
9564;DHT22;4820;50.870;4.702;2023-06-26T00:50:22;23.20;99.90
9564;DHT22;4820;50.870;4.702;2023-06-26T00:52:48;23.10;99.90
9564;DHT22;4820;50.870;4.702;2023-06-26T00:55:14;23.00;99.90
9564;DHT22;4820;50.870;4.702;2023-06-26T00:57:40;22.90;99.90
9564;DHT22;4820;50.870;4.702;2023-06-26T01:00:06;22.80;99.90
9564;DHT22;4820;50.870;4.702;2023-06-26T01:02:32;22.80;99.90
9564;DHT22;4820;50.870;4.702;2023-06-26T01:05:01;22.70;99.90
9564;DHT22;4820;50.870;4.702;2023-06-26T01:07:32;22.60;99.90
9564;DHT22;4820;50.870;4.702;2023-06-26T01:10:05;22.50;99.90
9564;DHT22;4820;50.870;4.702;2023-06-26T01:12:33;22.40;99.90
9564;DHT22;4820;50.870;4.702;2023-06-26T01:15:00;22.30;99.90
9564;DHT22;4820;50.870;4.702;2023-06-26T01:17:29;22.20;99.90
9564;DHT22;4820;50.870;4.702;2023-06-26T01:20:02;22.20;99.90
9564;DHT22;4820;50.870;4.702;2023-06-26T01:28:10;22.00;99.90
9564;DHT22;4820;50.870;4.702;2023-06-26T01:30:41;21.90;99.90
9564;DHT22;4820;50.870;4.702;2023-06-26T01:33:08;21.80;99.90
9564;DHT22;4820;50.870;4.702;2023-06-26T01:35:34;21.80;99.90
9564;DHT22;4820;50.870;4.702;2023-06-26T01:40:40;21.70;99.90
9564;DHT22;4820;50.870;4.702;2023-06-26T01:43:10;21.70;99.90
9564;DHT22;4820;50.870;4.702;2023-06-26T01:45:40;21.70;99.90
9564;DHT22;4820;50.870;4.702;2023-06-26T01:48:09;21.60;99.90
9564;DHT22;4820;50.870;4.702;2023-06-26T01:50:37;21.60;99.90
9564;DHT22;4820;50.870;4.702;2023-06-26T01:53:16;21.60;99.90
9564;DHT22;4820;50.870;4.702;2023-06-26T01:58:14;21.50;99.90
9564;DHT22;4820;50.870;4.702;2023-06-26T02:00:42;21.50;99.90
9564;DHT22;4820;50.870;4.702;2023-06-26T02:03:09;21.40;99.90
9564;DHT22;4820;50.870;4.702;2023-06-26T02:05:34;21.40;99.90
9564;DHT22;4820;50.870;4.702;2023-06-26T02:08:03;21.30;99.90
9564;DHT22;4820;50.870;4.702;2023-06-26T02:10:30;21.30;99.90
9564;DHT22;4820;50.870;4.702;2023-06-26T02:12:56;21.40;99.90
9564;DHT22;4820;50.870;4.702;2023-06-26T02:15:22;21.40;99.90
9564;DHT22;4820;50.870;4.702;2023-06-26T02:17:48;21.30;99.90
9564;DHT22;4820;50.870;4.702;2023-06-26T02:20:17;21.30;99.90
9564;DHT22;4820;50.870;4.702;2023-06-26T02:22:43;21.30;99.90
9564;DHT22;4820;50.870;4.702;2023-06-26T02:25:11;21.20;99.90
9564;DHT22;4820;50.870;4.702;2023-06-26T02:27:38;21.20;99.90
9564;DHT22;4820;50.870;4.702;2023-06-26T02:30:04;21.20;99.90
9564;DHT22;4820;50.870;4.702;2023-06-26T02:32:30;21.10;99.90
9564;DHT22;4820;50.870;4.702;2023-06-26T02:34:56;21.10;99.90
9564;DHT22;4820;50.870;4.702;2023-06-26T02:37:22;21.10;99.90
9564;DHT22;4820;50.870;4.702;2023-06-26T02:39:47;21.00;99.90
9564;DHT22;4820;50.870;4.702;2023-06-26T02:42:13;21.00;99.90
9564;DHT22;4820;50.870;4.702;2023-06-26T02:44:39;21.00;99.90
9564;DHT22;4820;50.870;4.702;2023-06-26T02:47:05;20.90;99.90
9564;DHT22;4820;50.870;4.702;2023-06-26T02:49:31;20.90;99.90
9564;DHT22;4820;50.870;4.702;2023-06-26T02:51:57;20.90;99.90
9564;DHT22;4820;50.870;4.702;2023-06-26T02:54:24;20.80;99.90
9564;DHT22;4820;50.870;4.702;2023-06-26T02:56:51;20.70;99.90
9564;DHT22;4820;50.870;4.702;2023-06-26T02:59:17;20.70;99.90
9564;DHT22;4820;50.870;4.702;2023-06-26T03:01:43;20.60;99.90
9564;DHT22;4820;50.870;4.702;2023-06-26T03:04:09;20.60;99.90
9564;DHT22;4820;50.870;4.702;2023-06-26T03:06:36;20.60;99.90
9564;DHT22;4820;50.870;4.702;2023-06-26T03:09:01;20.60;99.90
9564;DHT22;4820;50.870;4.702;2023-06-26T03:11:28;20.60;99.90
9564;DHT22;4820;50.870;4.702;2023-06-26T03:13:54;20.60;99.90
9564;DHT22;4820;50.870;4.702;2023-06-26T03:16:19;20.50;99.90
9564;DHT22;4820;50.870;4.702;2023-06-26T03:18:45;20.50;99.90
9564;DHT22;4820;50.870;4.702;2023-06-26T03:21:11;20.50;99.90
9564;DHT22;4820;50.870;4.702;2023-06-26T03:23:37;20.50;99.90
9564;DHT22;4820;50.870;4.702;2023-06-26T03:26:02;20.50;99.90
9564;DHT22;4820;50.870;4.702;2023-06-26T03:28:28;20.50;99.90
9564;DHT22;4820;50.870;4.702;2023-06-26T03:30:54;20.40;99.90
9564;DHT22;4820;50.870;4.702;2023-06-26T03:33:19;20.40;99.90
9564;DHT22;4820;50.870;4.702;2023-06-26T03:35:45;20.40;99.90
9564;DHT22;4820;50.870;4.702;2023-06-26T03:38:14;20.30;99.90
9564;DHT22;4820;50.870;4.702;2023-06-26T03:40:40;20.30;99.90
9564;DHT22;4820;50.870;4.702;2023-06-26T03:43:05;20.20;99.90
9564;DHT22;4820;50.870;4.702;2023-06-26T03:45:31;20.20;99.90
9564;DHT22;4820;50.870;4.702;2023-06-26T03:47:58;20.10;99.90
9564;DHT22;4820;50.870;4.702;2023-06-26T03:50:24;20.10;99.90
9564;DHT22;4820;50.870;4.702;2023-06-26T03:52:50;20.10;99.90
9564;DHT22;4820;50.870;4.702;2023-06-26T03:55:18;20.10;99.90
9564;DHT22;4820;50.870;4.702;2023-06-26T03:57:44;20.10;99.90
9564;DHT22;4820;50.870;4.702;2023-06-26T04:00:10;20.00;99.90
9564;DHT22;4820;50.870;4.702;2023-06-26T04:02:38;20.00;99.90
9564;DHT22;4820;50.870;4.702;2023-06-26T04:05:04;20.00;99.90
9564;DHT22;4820;50.870;4.702;2023-06-26T04:07:30;20.00;99.90
9564;DHT22;4820;50.870;4.702;2023-06-26T04:09:57;20.00;99.90
9564;DHT22;4820;50.870;4.702;2023-06-26T04:12:22;19.90;99.90
9564;DHT22;4820;50.870;4.702;2023-06-26T04:14:48;19.90;99.90
9564;DHT22;4820;50.870;4.702;2023-06-26T04:17:14;19.90;99.90
9564;DHT22;4820;50.870;4.702;2023-06-26T04:19:39;19.90;99.90
9564;DHT22;4820;50.870;4.702;2023-06-26T04:22:08;19.90;99.90
9564;DHT22;4820;50.870;4.702;2023-06-26T04:24:34;20.00;99.90
9564;DHT22;4820;50.870;4.702;2023-06-26T04:27:00;19.90;99.90
9564;DHT22;4820;50.870;4.702;2023-06-26T04:29:28;19.80;99.90
9564;DHT22;4820;50.870;4.702;2023-06-26T04:31:54;19.80;99.90
9564;DHT22;4820;50.870;4.702;2023-06-26T04:34:29;19.90;99.90
9564;DHT22;4820;50.870;4.702;2023-06-26T04:36:58;19.80;99.90
9564;DHT22;4820;50.870;4.702;2023-06-26T04:39:23;19.80;99.90
9564;DHT22;4820;50.870;4.702;2023-06-26T04:41:49;19.90;99.90
9564;DHT22;4820;50.870;4.702;2023-06-26T04:44:16;19.90;99.90
9564;DHT22;4820;50.870;4.702;2023-06-26T04:46:42;19.90;99.90
9564;DHT22;4820;50.870;4.702;2023-06-26T04:49:08;19.90;99.90
9564;DHT22;4820;50.870;4.702;2023-06-26T04:51:34;19.90;99.90
9564;DHT22;4820;50.870;4.702;2023-06-26T04:54:19;19.90;99.90
9564;DHT22;4820;50.870;4.702;2023-06-26T04:56:45;19.90;99.90
9564;DHT22;4820;50.870;4.702;2023-06-26T04:59:13;19.90;99.90
9564;DHT22;4820;50.870;4.702;2023-06-26T05:01:40;19.80;99.90
9564;DHT22;4820;50.870;4.702;2023-06-26T05:04:06;19.90;99.90
9564;DHT22;4820;50.870;4.702;2023-06-26T05:06:32;19.80;99.90
9564;DHT22;4820;50.870;4.702;2023-06-26T05:08:58;19.80;99.90
9564;DHT22;4820;50.870;4.702;2023-06-26T05:11:24;19.80;99.90
9564;DHT22;4820;50.870;4.702;2023-06-26T05:13:50;19.80;99.90
9564;DHT22;4820;50.870;4.702;2023-06-26T05:16:16;19.70;99.90
9564;DHT22;4820;50.870;4.702;2023-06-26T05:18:42;19.80;99.90
9564;DHT22;4820;50.870;4.702;2023-06-26T05:21:08;19.80;99.90
9564;DHT22;4820;50.870;4.702;2023-06-26T05:23:34;19.80;99.90
9564;DHT22;4820;50.870;4.702;2023-06-26T05:26:01;19.70;99.90
9564;DHT22;4820;50.870;4.702;2023-06-26T05:28:27;19.80;99.90
9564;DHT22;4820;50.870;4.702;2023-06-26T05:30:54;19.80;99.90
9564;DHT22;4820;50.870;4.702;2023-06-26T05:33:23;19.80;99.90
9564;DHT22;4820;50.870;4.702;2023-06-26T05:35:49;19.80;99.90
9564;DHT22;4820;50.870;4.702;2023-06-26T05:38:17;19.80;99.90
9564;DHT22;4820;50.870;4.702;2023-06-26T05:40:43;19.70;99.90
9564;DHT22;4820;50.870;4.702;2023-06-26T05:43:10;19.70;99.90
9564;DHT22;4820;50.870;4.702;2023-06-26T05:45:36;19.60;99.90
9564;DHT22;4820;50.870;4.702;2023-06-26T05:48:02;19.50;99.90
9564;DHT22;4820;50.870;4.702;2023-06-26T05:50:28;19.60;99.90
9564;DHT22;4820;50.870;4.702;2023-06-26T05:52:54;19.60;99.90
9564;DHT22;4820;50.870;4.702;2023-06-26T05:55:20;19.70;99.90
9564;DHT22;4820;50.870;4.702;2023-06-26T05:57:47;19.80;99.90
9564;DHT22;4820;50.870;4.702;2023-06-26T06:00:14;19.80;99.90
9564;DHT22;4820;50.870;4.702;2023-06-26T06:02:41;19.90;99.90
9564;DHT22;4820;50.870;4.702;2023-06-26T06:05:07;19.80;99.90
9564;DHT22;4820;50.870;4.702;2023-06-26T06:07:34;19.80;99.90
9564;DHT22;4820;50.870;4.702;2023-06-26T06:10:00;19.80;99.90
9564;DHT22;4820;50.870;4.702;2023-06-26T06:12:26;19.80;99.90
9564;DHT22;4820;50.870;4.702;2023-06-26T06:14:53;19.80;99.90
9564;DHT22;4820;50.870;4.702;2023-06-26T06:17:20;19.80;99.90
9564;DHT22;4820;50.870;4.702;2023-06-26T06:19:47;19.80;99.90
9564;DHT22;4820;50.870;4.702;2023-06-26T06:22:12;19.80;99.90
9564;DHT22;4820;50.870;4.702;2023-06-26T06:24:39;19.80;99.90
9564;DHT22;4820;50.870;4.702;2023-06-26T06:27:04;19.90;99.90
9564;DHT22;4820;50.870;4.702;2023-06-26T06:29:30;19.90;99.90
9564;DHT22;4820;50.870;4.702;2023-06-26T06:31:56;19.90;99.90
9564;DHT22;4820;50.870;4.702;2023-06-26T06:34:22;19.90;99.90
9564;DHT22;4820;50.870;4.702;2023-06-26T06:36:47;20.00;99.90
9564;DHT22;4820;50.870;4.702;2023-06-26T06:39:13;20.00;99.90
9564;DHT22;4820;50.870;4.702;2023-06-26T06:41:39;20.10;99.90
9564;DHT22;4820;50.870;4.702;2023-06-26T06:44:05;20.20;99.90
9564;DHT22;4820;50.870;4.702;2023-06-26T06:46:30;20.20;99.90
9564;DHT22;4820;50.870;4.702;2023-06-26T06:48:56;20.30;99.90
9564;DHT22;4820;50.870;4.702;2023-06-26T06:51:22;20.30;99.90
9564;DHT22;4820;50.870;4.702;2023-06-26T06:53:48;20.40;99.90
9564;DHT22;4820;50.870;4.702;2023-06-26T06:56:14;20.50;99.90
9564;DHT22;4820;50.870;4.702;2023-06-26T06:58:40;20.60;99.90
9564;DHT22;4820;50.870;4.702;2023-06-26T07:01:11;20.60;99.90
9564;DHT22;4820;50.870;4.702;2023-06-26T07:03:36;20.70;99.90
9564;DHT22;4820;50.870;4.702;2023-06-26T07:06:02;20.90;99.90
9564;DHT22;4820;50.870;4.702;2023-06-26T07:08:29;20.90;99.90
9564;DHT22;4820;50.870;4.702;2023-06-26T07:10:55;20.90;99.90
9564;DHT22;4820;50.870;4.702;2023-06-26T07:13:24;20.90;99.90
9564;DHT22;4820;50.870;4.702;2023-06-26T07:15:50;20.90;99.90
9564;DHT22;4820;50.870;4.702;2023-06-26T07:18:16;20.90;99.90
9564;DHT22;4820;50.870;4.702;2023-06-26T07:20:41;21.00;99.90
9564;DHT22;4820;50.870;4.702;2023-06-26T07:23:07;21.00;99.90
9564;DHT22;4820;50.870;4.702;2023-06-26T07:25:33;21.00;99.90
9564;DHT22;4820;50.870;4.702;2023-06-26T07:27:59;20.90;99.90
9564;DHT22;4820;50.870;4.702;2023-06-26T07:30:25;20.90;99.90
9564;DHT22;4820;50.870;4.702;2023-06-26T07:32:50;20.80;99.90
9564;DHT22;4820;50.870;4.702;2023-06-26T07:35:16;20.70;99.90
9564;DHT22;4820;50.870;4.702;2023-06-26T07:37:42;20.60;99.90
9564;DHT22;4820;50.870;4.702;2023-06-26T07:40:10;20.70;99.90
9564;DHT22;4820;50.870;4.702;2023-06-26T07:42:35;20.80;99.90
9564;DHT22;4820;50.870;4.702;2023-06-26T07:45:03;20.90;99.90
9564;DHT22;4820;50.870;4.702;2023-06-26T07:47:37;21.00;99.90
9564;DHT22;4820;50.870;4.702;2023-06-26T07:50:03;21.10;99.90
9564;DHT22;4820;50.870;4.702;2023-06-26T07:52:29;21.00;99.90
9564;DHT22;4820;50.870;4.702;2023-06-26T07:54:56;21.10;99.90
9564;DHT22;4820;50.870;4.702;2023-06-26T07:57:21;21.10;99.90
9564;DHT22;4820;50.870;4.702;2023-06-26T07:59:47;21.10;99.90
9564;DHT22;4820;50.870;4.702;2023-06-26T08:02:13;21.10;99.90
9564;DHT22;4820;50.870;4.702;2023-06-26T08:04:38;21.20;99.90
9564;DHT22;4820;50.870;4.702;2023-06-26T08:07:05;21.20;99.90
9564;DHT22;4820;50.870;4.702;2023-06-26T08:09:33;21.30;99.90
9564;DHT22;4820;50.870;4.702;2023-06-26T08:11:59;21.30;99.90
9564;DHT22;4820;50.870;4.702;2023-06-26T08:14:26;21.30;99.90
9564;DHT22;4820;50.870;4.702;2023-06-26T08:16:52;21.40;99.90
9564;DHT22;4820;50.870;4.702;2023-06-26T08:19:19;21.40;99.90
9564;DHT22;4820;50.870;4.702;2023-06-26T08:21:45;21.50;99.90
9564;DHT22;4820;50.870;4.702;2023-06-26T08:24:12;21.50;99.90
9564;DHT22;4820;50.870;4.702;2023-06-26T08:26:48;21.50;99.90
9564;DHT22;4820;50.870;4.702;2023-06-26T08:29:14;21.60;99.90
9564;DHT22;4820;50.870;4.702;2023-06-26T08:31:41;21.70;99.90
9564;DHT22;4820;50.870;4.702;2023-06-26T08:34:07;21.70;99.90
9564;DHT22;4820;50.870;4.702;2023-06-26T08:36:33;21.80;99.90
9564;DHT22;4820;50.870;4.702;2023-06-26T08:38:59;21.90;99.90
9564;DHT22;4820;50.870;4.702;2023-06-26T08:41:25;22.00;99.90
9564;DHT22;4820;50.870;4.702;2023-06-26T08:43:50;22.00;99.90
9564;DHT22;4820;50.870;4.702;2023-06-26T08:46:19;22.10;99.90
9564;DHT22;4820;50.870;4.702;2023-06-26T08:48:55;22.20;99.90
9564;DHT22;4820;50.870;4.702;2023-06-26T08:51:23;22.20;99.90
9564;DHT22;4820;50.870;4.702;2023-06-26T08:53:57;22.30;99.90
9564;DHT22;4820;50.870;4.702;2023-06-26T08:58:57;22.40;99.90
9564;DHT22;4820;50.870;4.702;2023-06-26T09:01:24;22.50;99.90
9564;DHT22;4820;50.870;4.702;2023-06-26T09:03:51;22.50;99.90
9564;DHT22;4820;50.870;4.702;2023-06-26T09:06:17;22.60;99.90
9564;DHT22;4820;50.870;4.702;2023-06-26T09:08:44;22.70;99.90
9564;DHT22;4820;50.870;4.702;2023-06-26T09:11:09;22.70;99.90
9564;DHT22;4820;50.870;4.702;2023-06-26T09:13:35;22.70;99.90
9564;DHT22;4820;50.870;4.702;2023-06-26T09:16:06;22.70;99.90
9564;DHT22;4820;50.870;4.702;2023-06-26T09:18:33;22.70;99.90
9564;DHT22;4820;50.870;4.702;2023-06-26T09:20:59;22.80;99.90
9564;DHT22;4820;50.870;4.702;2023-06-26T09:23:25;22.80;99.90
9564;DHT22;4820;50.870;4.702;2023-06-26T09:25:51;22.80;99.90
9564;DHT22;4820;50.870;4.702;2023-06-26T09:28:17;22.70;99.90
9564;DHT22;4820;50.870;4.702;2023-06-26T09:30:44;22.70;99.90
9564;DHT22;4820;50.870;4.702;2023-06-26T09:33:14;22.60;99.90
9564;DHT22;4820;50.870;4.702;2023-06-26T09:35:41;22.70;99.90
9564;DHT22;4820;50.870;4.702;2023-06-26T09:38:07;22.80;99.90
9564;DHT22;4820;50.870;4.702;2023-06-26T09:40:33;23.00;99.90
9564;DHT22;4820;50.870;4.702;2023-06-26T09:43:04;23.10;99.90
9564;DHT22;4820;50.870;4.702;2023-06-26T09:45:36;23.20;99.90
9564;DHT22;4820;50.870;4.702;2023-06-26T09:48:05;23.20;99.60
9564;DHT22;4820;50.870;4.702;2023-06-26T09:50:33;23.30;99.90
9564;DHT22;4820;50.870;4.702;2023-06-26T09:53:11;23.40;99.90
9564;DHT22;4820;50.870;4.702;2023-06-26T09:55:39;23.40;99.30
9564;DHT22;4820;50.870;4.702;2023-06-26T09:58:08;23.40;98.80
9564;DHT22;4820;50.870;4.702;2023-06-26T10:00:35;23.40;98.90
9564;DHT22;4820;50.870;4.702;2023-06-26T10:03:01;23.30;98.90
9564;DHT22;4820;50.870;4.702;2023-06-26T10:05:27;23.40;98.90
9564;DHT22;4820;50.870;4.702;2023-06-26T10:07:54;23.40;97.10
9564;DHT22;4820;50.870;4.702;2023-06-26T10:10:22;23.30;97.30
9564;DHT22;4820;50.870;4.702;2023-06-26T10:12:50;23.30;97.50
9564;DHT22;4820;50.870;4.702;2023-06-26T10:15:17;23.40;97.20
9564;DHT22;4820;50.870;4.702;2023-06-26T10:17:46;23.60;97.30
9564;DHT22;4820;50.870;4.702;2023-06-26T10:20:14;23.60;97.20
9564;DHT22;4820;50.870;4.702;2023-06-26T10:22:44;23.70;96.70
9564;DHT22;4820;50.870;4.702;2023-06-26T10:25:10;23.60;96.30
9564;DHT22;4820;50.870;4.702;2023-06-26T10:27:42;23.60;96.80
9564;DHT22;4820;50.870;4.702;2023-06-26T10:30:16;23.50;97.20
9564;DHT22;4820;50.870;4.702;2023-06-26T10:32:43;23.40;97.20
9564;DHT22;4820;50.870;4.702;2023-06-26T10:35:11;23.40;95.90
9564;DHT22;4820;50.870;4.702;2023-06-26T10:37:50;23.40;96.30
9564;DHT22;4820;50.870;4.702;2023-06-26T10:40:25;23.60;95.10
9564;DHT22;4820;50.870;4.702;2023-06-26T10:43:05;23.80;94.90
9564;DHT22;4820;50.870;4.702;2023-06-26T10:45:34;23.90;94.80
9564;DHT22;4820;50.870;4.702;2023-06-26T10:48:02;23.90;92.90
9564;DHT22;4820;50.870;4.702;2023-06-26T10:50:32;23.90;91.50
9564;DHT22;4820;50.870;4.702;2023-06-26T10:53:23;23.70;92.90
9564;DHT22;4820;50.870;4.702;2023-06-26T10:56:01;23.50;92.90
9564;DHT22;4820;50.870;4.702;2023-06-26T11:01:18;23.60;93.40
9564;DHT22;4820;50.870;4.702;2023-06-26T11:04:21;23.70;93.30
9564;DHT22;4820;50.870;4.702;2023-06-26T11:06:39;23.70;93.50
9564;DHT22;4820;50.870;4.702;2023-06-26T11:09:09;23.90;93.70
9564;DHT22;4820;50.870;4.702;2023-06-26T11:14:31;24.10;93.50
9564;DHT22;4820;50.870;4.702;2023-06-26T11:16:57;24.20;93.00
9564;DHT22;4820;50.870;4.702;2023-06-26T11:19:26;24.30;92.90
9564;DHT22;4820;50.870;4.702;2023-06-26T11:21:59;24.30;92.60
9564;DHT22;4820;50.870;4.702;2023-06-26T11:24:26;24.30;92.70
9564;DHT22;4820;50.870;4.702;2023-06-26T11:26:54;24.50;92.00
9564;DHT22;4820;50.870;4.702;2023-06-26T11:29:26;24.50;92.20
9564;DHT22;4820;50.870;4.702;2023-06-26T11:32:00;24.50;92.80
9564;DHT22;4820;50.870;4.702;2023-06-26T11:34:30;24.50;92.80
9564;DHT22;4820;50.870;4.702;2023-06-26T11:36:57;24.50;93.00
9564;DHT22;4820;50.870;4.702;2023-06-26T11:39:23;24.50;91.90
9564;DHT22;4820;50.870;4.702;2023-06-26T11:41:52;24.30;91.00
9564;DHT22;4820;50.870;4.702;2023-06-26T11:44:18;24.20;91.10
9564;DHT22;4820;50.870;4.702;2023-06-26T11:46:46;24.00;90.80
9564;DHT22;4820;50.870;4.702;2023-06-26T11:49:16;23.90;91.00
9564;DHT22;4820;50.870;4.702;2023-06-26T11:51:42;23.90;91.20
9564;DHT22;4820;50.870;4.702;2023-06-26T11:54:09;24.00;91.30
9564;DHT22;4820;50.870;4.702;2023-06-26T11:56:34;24.10;90.70
9564;DHT22;4820;50.870;4.702;2023-06-26T11:59:08;24.30;90.30
9564;DHT22;4820;50.870;4.702;2023-06-26T12:01:43;24.30;90.40
9564;DHT22;4820;50.870;4.702;2023-06-26T12:04:15;24.30;90.30
9564;DHT22;4820;50.870;4.702;2023-06-26T12:06:52;24.10;90.60
9564;DHT22;4820;50.870;4.702;2023-06-26T12:09:23;24.10;90.80
9564;DHT22;4820;50.870;4.702;2023-06-26T12:11:55;24.00;90.80
9564;DHT22;4820;50.870;4.702;2023-06-26T12:14:24;24.10;91.40
9564;DHT22;4820;50.870;4.702;2023-06-26T12:16:52;24.10;91.20
9564;DHT22;4820;50.870;4.702;2023-06-26T12:19:24;24.20;91.50
9564;DHT22;4820;50.870;4.702;2023-06-26T12:21:53;24.30;91.80
9564;DHT22;4820;50.870;4.702;2023-06-26T12:24:23;24.30;91.80
9564;DHT22;4820;50.870;4.702;2023-06-26T12:26:54;24.40;91.40
9564;DHT22;4820;50.870;4.702;2023-06-26T12:29:32;24.30;91.40
9564;DHT22;4820;50.870;4.702;2023-06-26T12:31:58;24.40;91.40
9564;DHT22;4820;50.870;4.702;2023-06-26T12:34:31;24.30;90.30
9564;DHT22;4820;50.870;4.702;2023-06-26T12:37:09;24.30;90.70
9564;DHT22;4820;50.870;4.702;2023-06-26T12:39:52;24.40;90.20
9564;DHT22;4820;50.870;4.702;2023-06-26T12:42:22;24.50;89.50
9564;DHT22;4820;50.870;4.702;2023-06-26T12:44:50;24.50;88.80
9564;DHT22;4820;50.870;4.702;2023-06-26T12:47:16;24.50;89.20
9564;DHT22;4820;50.870;4.702;2023-06-26T12:49:44;24.50;89.50
9564;DHT22;4820;50.870;4.702;2023-06-26T12:52:15;24.50;90.00
9564;DHT22;4820;50.870;4.702;2023-06-26T12:54:45;24.40;89.70
9564;DHT22;4820;50.870;4.702;2023-06-26T12:57:12;24.30;87.80
9564;DHT22;4820;50.870;4.702;2023-06-26T12:59:39;24.30;86.90
9564;DHT22;4820;50.870;4.702;2023-06-26T13:02:06;24.40;87.50
9564;DHT22;4820;50.870;4.702;2023-06-26T13:04:32;24.50;87.50
9564;DHT22;4820;50.870;4.702;2023-06-26T13:06:59;24.60;87.20
9564;DHT22;4820;50.870;4.702;2023-06-26T13:09:25;24.70;86.80
9564;DHT22;4820;50.870;4.702;2023-06-26T13:11:54;24.70;85.80
9564;DHT22;4820;50.870;4.702;2023-06-26T13:14:20;24.70;85.50
9564;DHT22;4820;50.870;4.702;2023-06-26T13:16:47;24.70;85.80
9564;DHT22;4820;50.870;4.702;2023-06-26T13:19:13;24.70;86.30
9564;DHT22;4820;50.870;4.702;2023-06-26T13:21:38;24.90;86.70
9564;DHT22;4820;50.870;4.702;2023-06-26T13:24:05;25.10;84.30
9564;DHT22;4820;50.870;4.702;2023-06-26T13:26:31;25.10;83.10
9564;DHT22;4820;50.870;4.702;2023-06-26T13:28:57;25.00;83.50
9564;DHT22;4820;50.870;4.702;2023-06-26T13:31:23;24.90;84.10
9564;DHT22;4820;50.870;4.702;2023-06-26T13:33:49;24.70;85.20
9564;DHT22;4820;50.870;4.702;2023-06-26T13:36:15;24.50;86.00
9564;DHT22;4820;50.870;4.702;2023-06-26T13:38:44;24.40;86.10
9564;DHT22;4820;50.870;4.702;2023-06-26T13:41:11;24.40;86.70
9564;DHT22;4820;50.870;4.702;2023-06-26T13:43:37;24.40;85.80
9564;DHT22;4820;50.870;4.702;2023-06-26T13:46:03;24.30;86.00
9564;DHT22;4820;50.870;4.702;2023-06-26T13:48:29;24.40;87.40
9564;DHT22;4820;50.870;4.702;2023-06-26T13:50:55;24.50;88.70
9564;DHT22;4820;50.870;4.702;2023-06-26T13:53:21;24.60;86.70
9564;DHT22;4820;50.870;4.702;2023-06-26T13:55:47;24.70;87.40
9564;DHT22;4820;50.870;4.702;2023-06-26T13:58:13;24.80;86.90
9564;DHT22;4820;50.870;4.702;2023-06-26T14:00:39;25.00;85.70
9564;DHT22;4820;50.870;4.702;2023-06-26T14:03:05;25.00;85.70
9564;DHT22;4820;50.870;4.702;2023-06-26T14:05:36;25.20;84.90
9564;DHT22;4820;50.870;4.702;2023-06-26T14:08:06;25.30;84.20
9564;DHT22;4820;50.870;4.702;2023-06-26T14:10:32;25.50;84.60
9564;DHT22;4820;50.870;4.702;2023-06-26T14:13:02;25.50;84.70
9564;DHT22;4820;50.870;4.702;2023-06-26T14:15:28;25.60;84.00
9564;DHT22;4820;50.870;4.702;2023-06-26T14:17:54;25.60;83.70
9564;DHT22;4820;50.870;4.702;2023-06-26T14:20:22;25.60;83.20
9564;DHT22;4820;50.870;4.702;2023-06-26T14:22:48;25.50;83.40
9564;DHT22;4820;50.870;4.702;2023-06-26T14:25:16;25.50;83.10
9564;DHT22;4820;50.870;4.702;2023-06-26T14:27:42;25.50;83.30
9564;DHT22;4820;50.870;4.702;2023-06-26T14:30:08;25.40;83.50
9564;DHT22;4820;50.870;4.702;2023-06-26T14:32:34;25.40;82.50
9564;DHT22;4820;50.870;4.702;2023-06-26T14:35:01;25.30;82.30
9564;DHT22;4820;50.870;4.702;2023-06-26T14:37:29;25.20;81.80
9564;DHT22;4820;50.870;4.702;2023-06-26T14:39:54;25.20;82.30
9564;DHT22;4820;50.870;4.702;2023-06-26T14:42:21;25.30;83.00
9564;DHT22;4820;50.870;4.702;2023-06-26T14:44:48;25.30;83.30
9564;DHT22;4820;50.870;4.702;2023-06-26T14:47:16;25.30;83.70
9564;DHT22;4820;50.870;4.702;2023-06-26T14:49:43;25.40;84.10
9564;DHT22;4820;50.870;4.702;2023-06-26T14:52:09;25.40;84.10
9564;DHT22;4820;50.870;4.702;2023-06-26T14:54:35;25.50;83.50
9564;DHT22;4820;50.870;4.702;2023-06-26T14:57:05;25.60;83.40
9564;DHT22;4820;50.870;4.702;2023-06-26T14:59:31;25.80;83.80
9564;DHT22;4820;50.870;4.702;2023-06-26T15:01:56;26.00;82.40
9564;DHT22;4820;50.870;4.702;2023-06-26T15:04:22;26.00;81.90
9564;DHT22;4820;50.870;4.702;2023-06-26T15:06:48;25.80;81.80
9564;DHT22;4820;50.870;4.702;2023-06-26T15:09:17;25.50;82.30
9564;DHT22;4820;50.870;4.702;2023-06-26T15:11:42;25.40;83.10
9564;DHT22;4820;50.870;4.702;2023-06-26T15:14:08;25.30;82.60
9564;DHT22;4820;50.870;4.702;2023-06-26T15:16:34;25.20;84.00
9564;DHT22;4820;50.870;4.702;2023-06-26T15:19:00;25.20;84.10
9564;DHT22;4820;50.870;4.702;2023-06-26T15:21:26;25.30;84.10
9564;DHT22;4820;50.870;4.702;2023-06-26T15:23:52;25.40;82.80
9564;DHT22;4820;50.870;4.702;2023-06-26T15:26:18;25.50;83.00
9564;DHT22;4820;50.870;4.702;2023-06-26T15:28:44;25.70;82.50
9564;DHT22;4820;50.870;4.702;2023-06-26T15:31:10;25.80;82.70
9564;DHT22;4820;50.870;4.702;2023-06-26T15:33:36;25.80;82.70
9564;DHT22;4820;50.870;4.702;2023-06-26T15:36:02;25.70;83.30
9564;DHT22;4820;50.870;4.702;2023-06-26T15:38:29;25.50;82.50
9564;DHT22;4820;50.870;4.702;2023-06-26T15:40:54;25.30;83.10
9564;DHT22;4820;50.870;4.702;2023-06-26T15:43:21;25.30;83.00
9564;DHT22;4820;50.870;4.702;2023-06-26T15:45:47;25.30;83.10
9564;DHT22;4820;50.870;4.702;2023-06-26T15:48:12;25.30;83.40
9564;DHT22;4820;50.870;4.702;2023-06-26T15:50:38;25.30;82.70
9564;DHT22;4820;50.870;4.702;2023-06-26T15:53:04;25.20;81.60
9564;DHT22;4820;50.870;4.702;2023-06-26T15:55:30;25.20;82.30
9564;DHT22;4820;50.870;4.702;2023-06-26T15:57:56;25.10;82.50
9564;DHT22;4820;50.870;4.702;2023-06-26T16:00:21;25.00;82.50
9564;DHT22;4820;50.870;4.702;2023-06-26T16:02:47;25.00;83.30
9564;DHT22;4820;50.870;4.702;2023-06-26T16:05:14;24.90;83.00
9564;DHT22;4820;50.870;4.702;2023-06-26T16:07:40;24.90;83.40
9564;DHT22;4820;50.870;4.702;2023-06-26T16:10:06;24.80;84.20
9564;DHT22;4820;50.870;4.702;2023-06-26T16:12:32;24.70;84.30
9564;DHT22;4820;50.870;4.702;2023-06-26T16:14:58;24.50;84.10
9564;DHT22;4820;50.870;4.702;2023-06-26T16:17:24;24.40;84.80
9564;DHT22;4820;50.870;4.702;2023-06-26T16:19:50;24.30;84.40
9564;DHT22;4820;50.870;4.702;2023-06-26T16:22:15;24.20;84.40